Time;durP1;ratioP1;P1;durP2;ratioP2;P2;SDS_P1;SDS_P2;PMS_P1;PMS_P2;Temp;Humidity;BMP_temperature;BMP_pressure;BME280_temperature;BME280_humidity;BME280_pressure;Samples;Min_cycle;Max_cycle;Signal;HPM_P1;HPM_P2
2022/07/30 00:02:15;;;;;;;22.92;6.65;;;19.10;99.90;;;;;;5055800;28;20037;-70
2022/07/30 00:04:42;;;;;;;14.88;5.72;;;19.30;99.90;;;;;;5056256;28;20553;-70
2022/07/30 00:07:08;;;;;;;14.93;5.60;;;19.20;99.90;;;;;;5056161;28;20307;-70
2022/07/30 00:09:34;;;;;;;18.73;5.88;;;18.90;99.90;;;;;;5056144;28;20017;-70
2022/07/30 00:11:59;;;;;;;12.65;5.95;;;18.80;99.90;;;;;;5056135;28;20498;-71
2022/07/30 00:14:25;;;;;;;14.15;5.70;;;18.70;99.90;;;;;;5055931;28;20119;-69
2022/07/30 00:16:52;;;;;;;16.90;5.93;;;18.50;99.90;;;;;;5027886;28;20576;-71
2022/07/30 00:19:19;;;;;;;20.58;6.35;;;18.70;99.90;;;;;;5055947;28;20075;-70
2022/07/30 00:21:45;;;;;;;15.60;6.35;;;18.70;99.90;;;;;;5055753;28;20470;-70
2022/07/30 00:24:11;;;;;;;13.10;6.50;;;18.60;99.90;;;;;;5055843;28;20037;-70
2022/07/30 00:26:37;;;;;;;15.02;7.20;;;18.70;99.90;;;;;;5056088;28;20052;-70
2022/07/30 00:29:04;;;;;;;20.23;7.32;;;18.90;99.90;;;;;;5054350;28;20013;-70
2022/07/30 00:31:30;;;;;;;14.57;6.95;;;18.60;99.90;;;;;;5055369;28;20033;-70
2022/07/30 00:33:56;;;;;;;13.90;7.25;;;18.40;99.90;;;;;;5055661;28;20021;-70
2022/07/30 00:36:22;;;;;;;17.35;7.38;;;18.40;99.90;;;;;;5055940;28;20102;-69
2022/07/30 00:38:48;;;;;;;10.45;7.60;;;18.20;99.90;;;;;;5055408;28;20113;-69
2022/07/30 00:41:14;;;;;;;16.10;7.47;;;18.10;99.90;;;;;;5055411;28;20048;-70
2022/07/30 00:43:39;;;;;;;19.08;8.38;;;18.10;99.90;;;;;;5055229;28;20557;-69
2022/07/30 00:46:05;;;;;;;14.95;7.88;;;18.00;99.90;;;;;;5055304;28;20128;-69
2022/07/30 00:48:31;;;;;;;22.45;8.45;;;18.00;99.90;;;;;;5055432;28;20029;-70
2022/07/30 00:50:57;;;;;;;15.52;8.70;;;17.80;99.90;;;;;;5054252;28;20021;-70
2022/07/30 00:53:23;;;;;;;19.10;8.70;;;17.90;99.90;;;;;;5055336;28;20033;-70
2022/07/30 00:55:48;;;;;;;18.73;8.73;;;18.10;99.90;;;;;;5055209;28;20017;-69
2022/07/30 00:58:14;;;;;;;18.00;8.40;;;18.00;99.90;;;;;;5052941;28;20025;-70
2022/07/30 01:00:40;;;;;;;16.98;8.73;;;17.90;99.90;;;;;;5054932;28;20393;-71
2022/07/30 01:03:05;;;;;;;20.23;9.45;;;17.50;99.90;;;;;;5055159;28;20025;-69
2022/07/30 01:05:31;;;;;;;17.70;9.63;;;17.40;99.90;;;;;;5054919;28;20048;-70
2022/07/30 01:07:57;;;;;;;17.98;10.20;;;17.50;99.90;;;;;;5055030;28;20512;-70
2022/07/30 01:10:23;;;;;;;17.10;9.95;;;17.50;99.90;;;;;;5055074;28;20567;-69
2022/07/30 01:12:51;;;;;;;17.73;10.35;;;17.80;99.90;;;;;;5053736;28;20450;-70
2022/07/30 01:15:17;;;;;;;17.38;11.20;;;17.80;99.90;;;;;;5053194;28;20099;-70
2022/07/30 01:17:45;;;;;;;19.27;10.75;;;17.70;99.90;;;;;;5055041;28;20068;-70
2022/07/30 01:20:16;;;;;;;20.55;11.93;;;17.90;99.90;;;;;;5053244;28;20028;-70
2022/07/30 01:22:49;;;;;;;17.83;10.65;;;18.20;99.90;;;;;;5055020;28;20564;-71
2022/07/30 01:25:38;;;;;;;24.02;11.52;;;18.10;99.90;;;;;;5054419;28;20041;-70
2022/07/30 01:28:09;;;;;;;24.13;11.63;;;17.50;99.90;;;;;;5053373;28;20116;-69
2022/07/30 01:30:39;;;;;;;21.17;11.80;;;17.40;99.90;;;;;;5053089;28;20033;-70
2022/07/30 01:33:09;;;;;;;18.33;11.15;;;17.60;99.90;;;;;;5054675;28;20029;-70
2022/07/30 01:35:35;;;;;;;18.88;10.93;;;17.70;99.90;;;;;;5053058;28;20412;-69
2022/07/30 01:38:04;;;;;;;15.65;10.75;;;17.40;99.90;;;;;;5053118;28;20036;-70
2022/07/30 01:40:30;;;;;;;20.92;12.18;;;17.20;99.90;;;;;;5053045;28;20028;-70
2022/07/30 01:42:59;;;;;;;17.58;11.48;;;16.90;99.90;;;;;;5049263;28;20032;-70
2022/07/30 01:45:28;;;;;;;15.55;12.25;;;17.10;99.90;;;;;;5031471;28;20484;-70
2022/07/30 01:47:57;;;;;;;22.50;12.57;;;17.10;99.90;;;;;;5032936;28;20075;-70
2022/07/30 01:50:23;;;;;;;28.42;13.27;;;17.00;99.90;;;;;;5033095;28;20477;-70
2022/07/30 01:52:51;;;;;;;28.40;13.02;;;16.90;99.90;;;;;;5034250;28;20080;-70
2022/07/30 01:55:26;;;;;;;18.98;12.23;;;17.00;99.90;;;;;;5057086;22;20160;-72
2022/07/30 01:57:54;;;;;;;23.08;12.32;;;16.90;99.90;;;;;;5072740;28;20090;-70
2022/07/30 02:00:21;;;;;;;18.80;12.55;;;17.10;99.90;;;;;;5072268;28;20097;-72
2022/07/30 02:02:48;;;;;;;22.00;12.25;;;17.30;99.90;;;;;;5074033;28;20079;-71
2022/07/30 02:05:14;;;;;;;18.48;11.77;;;17.20;99.90;;;;;;5055938;28;20465;-72
2022/07/30 02:08:39;;;;;;;15.90;12.23;;;17.30;99.90;;;;;;5073907;28;20099;-72
2022/07/30 02:11:15;;;;;;;21.80;12.02;;;17.00;99.90;;;;;;4968595;28;20045;-73
2022/07/30 02:14:05;;;;;;;28.52;12.38;;;17.00;99.90;;;;;;5055379;28;20043;-70
2022/07/30 02:16:37;;;;;;;20.63;12.57;;;17.00;99.90;;;;;;5073700;28;20024;-72
2022/07/30 02:19:25;;;;;;;21.48;12.85;;;16.90;99.90;;;;;;5055533;28;20017;-72
2022/07/30 02:21:59;;;;;;;25.45;13.65;;;16.80;99.90;;;;;;5055600;28;20127;-72
2022/07/30 02:24:31;;;;;;;31.33;13.75;;;16.60;99.90;;;;;;5055698;28;20021;-72
2022/07/30 02:27:03;;;;;;;24.80;13.73;;;16.70;99.90;;;;;;5073059;28;20385;-65
2022/07/30 02:29:32;;;;;;;26.05;13.88;;;16.60;99.90;;;;;;5055633;28;20024;-72
2022/07/30 02:32:00;;;;;;;24.65;14.40;;;16.50;99.90;;;;;;5055335;28;20762;-72
2022/07/30 02:34:28;;;;;;;22.45;15.35;;;16.50;99.90;;;;;;5055470;28;20029;-72
2022/07/30 02:36:57;;;;;;;19.20;14.18;;;16.50;99.90;;;;;;5055070;28;20078;-72
2022/07/30 02:39:24;;;;;;;24.42;13.95;;;16.70;99.90;;;;;;5073352;28;20025;-72
2022/07/30 02:41:52;;;;;;;27.52;15.27;;;16.50;99.90;;;;;;5072918;28;20094;-71
2022/07/30 02:44:19;;;;;;;22.73;14.88;;;16.60;99.90;;;;;;5055565;28;20013;-72
2022/07/30 02:46:48;;;;;;;22.73;14.65;;;16.50;99.90;;;;;;5055148;28;20021;-71
2022/07/30 02:49:30;;;;;;;20.10;13.60;;;16.40;99.90;;;;;;5073105;28;20430;-72
2022/07/30 02:51:57;;;;;;;23.60;14.52;;;16.50;99.90;;;;;;5055012;28;20492;-72
2022/07/30 02:54:25;;;;;;;22.02;15.02;;;16.50;99.90;;;;;;5073355;28;20052;-72
2022/07/30 02:56:54;;;;;;;21.98;15.60;;;16.60;99.90;;;;;;5054517;28;20020;-72
2022/07/30 02:59:22;;;;;;;17.83;14.02;;;16.70;99.90;;;;;;5055649;28;20377;-72
2022/07/30 03:01:50;;;;;;;23.25;15.48;;;16.70;99.90;;;;;;5054738;28;20033;-72
2022/07/30 03:04:20;;;;;;;27.25;15.15;;;16.50;99.90;;;;;;5073327;28;20097;-72
2022/07/30 03:06:48;;;;;;;23.35;15.15;;;16.40;99.90;;;;;;5054821;28;20028;-71
2022/07/30 03:09:16;;;;;;;22.90;15.15;;;16.40;99.90;;;;;;5054971;28;20020;-71
2022/07/30 03:11:42;;;;;;;26.15;14.88;;;16.40;99.90;;;;;;5054717;28;20047;-72
2022/07/30 03:14:10;;;;;;;22.20;14.70;;;16.50;99.90;;;;;;5054665;28;20032;-72
2022/07/30 03:16:37;;;;;;;24.20;15.35;;;16.60;99.90;;;;;;5054840;28;20055;-71
2022/07/30 03:19:08;;;;;;;22.63;14.55;;;16.50;99.90;;;;;;5054761;28;20016;-72
2022/07/30 03:21:36;;;;;;;26.63;15.13;;;16.30;99.90;;;;;;5072402;28;20124;-72
2022/07/30 03:24:03;;;;;;;22.15;15.60;;;16.40;99.90;;;;;;5054614;28;20024;-72
2022/07/30 03:26:33;;;;;;;22.90;14.32;;;16.40;99.90;;;;;;5054467;28;20023;-72
2022/07/30 03:29:01;;;;;;;18.90;14.60;;;16.40;99.90;;;;;;5054569;28;20432;-72
2022/07/30 03:31:28;;;;;;;22.40;14.32;;;16.40;99.90;;;;;;5073025;28;20041;-72
2022/07/30 03:33:55;;;;;;;27.23;15.25;;;16.40;99.90;;;;;;5054754;28;20115;-72
2022/07/30 03:36:21;;;;;;;19.65;14.93;;;16.50;99.90;;;;;;5072469;28;20477;-72
2022/07/30 03:38:48;;;;;;;18.40;13.18;;;16.40;99.90;;;;;;5054794;28;20085;-72
2022/07/30 03:41:15;;;;;;;24.45;13.50;;;16.30;99.90;;;;;;5054042;28;20078;-72
2022/07/30 03:43:44;;;;;;;18.58;14.35;;;16.30;99.90;;;;;;5054653;28;20078;-72
2022/07/30 03:46:14;;;;;;;16.67;13.73;;;16.50;99.90;;;;;;5072479;28;20115;-73
2022/07/30 03:48:44;;;;;;;23.35;14.20;;;16.50;99.90;;;;;;5054626;28;20021;-72
2022/07/30 03:51:11;;;;;;;16.27;13.90;;;16.50;99.90;;;;;;5054167;28;20446;-72
2022/07/30 03:53:40;;;;;;;22.13;13.68;;;16.40;99.90;;;;;;5054347;28;20453;-72
2022/07/30 03:56:24;;;;;;;19.30;14.00;;;16.30;99.90;;;;;;5072289;28;20093;-72
2022/07/30 03:59:13;;;;;;;18.25;13.60;;;16.20;99.90;;;;;;5071443;28;20068;-70
2022/07/30 04:01:39;;;;;;;14.90;12.73;;;16.20;99.90;;;;;;5054273;28;20037;-71
2022/07/30 04:04:23;;;;;;;24.52;13.23;;;16.20;99.90;;;;;;5054669;28;20021;-72
2022/07/30 04:06:49;;;;;;;20.85;13.27;;;16.40;99.90;;;;;;5053942;28;20226;-71
2022/07/30 04:09:18;;;;;;;26.48;14.60;;;16.30;99.90;;;;;;5054025;28;20108;-72
2022/07/30 04:11:44;;;;;;;22.77;13.05;;;16.30;99.90;;;;;;5054471;28;20440;-69
2022/07/30 04:14:13;;;;;;;18.35;12.80;;;16.20;99.90;;;;;;5054150;28;20299;-71
2022/07/30 04:16:44;;;;;;;20.27;13.10;;;16.30;99.90;;;;;;5054298;28;20024;-70
2022/07/30 04:19:27;;;;;;;22.52;13.35;;;16.60;99.90;;;;;;5053919;28;20051;-71
2022/07/30 04:21:54;;;;;;;23.23;13.70;;;17.00;99.90;;;;;;5054269;28;20480;-70
2022/07/30 04:24:21;;;;;;;19.55;13.63;;;16.80;99.90;;;;;;5053771;28;20028;-68
2022/07/30 04:26:48;;;;;;;24.33;12.73;;;17.00;99.90;;;;;;5037614;28;20025;-67
2022/07/30 04:29:15;;;;;;;20.73;12.00;;;16.90;99.90;;;;;;5064410;28;20033;-69
2022/07/30 04:31:41;;;;;;;18.52;12.25;;;17.00;99.90;;;;;;5054082;28;20024;-70
2022/07/30 04:34:47;;;;;;;17.88;11.93;;;17.10;99.90;;;;;;5062049;28;20029;-70
2022/07/30 04:37:17;;;;;;;18.02;12.35;;;17.50;99.90;;;;;;5057905;28;20036;-71
2022/07/30 04:39:43;;;;;;;18.13;12.55;;;17.20;99.90;;;;;;5057377;28;20126;-71
2022/07/30 04:42:10;;;;;;;18.92;12.05;;;17.00;99.90;;;;;;5075524;28;20051;-71
2022/07/30 04:44:37;;;;;;;17.52;11.32;;;16.70;99.90;;;;;;5057503;28;20384;-70
2022/07/30 04:47:29;;;;;;;20.75;11.55;;;16.70;99.90;;;;;;5059483;28;20051;-68
2022/07/30 04:50:21;;;;;;;23.35;12.18;;;16.50;99.90;;;;;;5067139;28;20366;-71
2022/07/30 04:52:47;;;;;;;20.90;11.88;;;16.50;99.90;;;;;;5057027;28;20484;-71
2022/07/30 04:55:21;;;;;;;20.02;11.85;;;16.60;99.90;;;;;;5057070;28;20032;-70
2022/07/30 04:57:50;;;;;;;22.55;13.15;;;17.00;99.90;;;;;;5057182;28;20507;-69
2022/07/30 05:00:16;;;;;;;19.88;11.95;;;17.10;99.90;;;;;;5057164;28;20070;-71
2022/07/30 05:02:43;;;;;;;27.92;12.13;;;17.10;99.90;;;;;;5057274;28;20090;-70
2022/07/30 05:05:14;;;;;;;17.13;11.88;;;17.10;99.90;;;;;;5040551;28;20064;-71
2022/07/30 05:07:42;;;;;;;23.38;12.32;;;17.20;99.90;;;;;;5056984;28;20036;-66
2022/07/30 05:10:10;;;;;;;22.85;11.88;;;17.30;99.90;;;;;;5056652;28;20027;-64
2022/07/30 05:12:38;;;;;;;17.15;11.90;;;17.40;99.90;;;;;;5057302;28;20017;-71
2022/07/30 05:15:06;;;;;;;19.75;12.45;;;17.60;99.90;;;;;;5057011;28;20044;-72
2022/07/30 05:17:33;;;;;;;20.02;12.45;;;17.40;99.90;;;;;;5075012;28;20023;-72
2022/07/30 05:20:01;;;;;;;20.45;11.95;;;17.50;99.90;;;;;;5056920;28;20415;-70
2022/07/30 05:22:32;;;;;;;19.30;11.70;;;17.70;99.90;;;;;;5056438;28;20032;-72
2022/07/30 05:24:58;;;;;;;16.42;11.50;;;17.90;99.90;;;;;;5056592;28;20365;-71
2022/07/30 05:27:23;;;;;;;18.33;12.18;;;18.10;99.90;;;;;;5056823;28;20036;-70
2022/07/30 05:29:49;;;;;;;19.63;10.75;;;18.30;99.90;;;;;;5056710;28;20021;-73
2022/07/30 05:32:18;;;;;;;17.67;11.20;;;18.30;99.90;;;;;;5056682;28;20027;-71
2022/07/30 05:34:44;;;;;;;18.02;10.27;;;18.20;99.90;;;;;;5056879;28;20404;-67
2022/07/30 05:37:10;;;;;;;13.38;9.60;;;17.90;99.90;;;;;;5056083;28;20035;-69
2022/07/30 05:39:36;;;;;;;14.45;10.70;;;17.60;99.90;;;;;;5056454;28;20111;-71
2022/07/30 05:42:22;;;;;;;24.38;10.75;;;17.60;99.90;;;;;;5074264;28;20082;-64
2022/07/30 05:44:50;;;;;;;19.10;10.00;;;18.10;99.90;;;;;;5055711;28;20477;-66
2022/07/30 05:47:19;;;;;;;18.60;10.02;;;18.60;99.90;;;;;;5056467;28;20028;-69
2022/07/30 05:49:46;;;;;;;17.90;9.27;;;18.60;99.90;;;;;;5072047;28;20016;-69
2022/07/30 05:52:12;;;;;;;20.23;9.68;;;18.30;99.90;;;;;;5069428;28;20439;-66
2022/07/30 05:54:38;;;;;;;11.30;8.88;;;18.20;99.90;;;;;;5059135;28;20083;-67
2022/07/30 05:57:30;;;;;;;9.63;8.48;;;18.00;99.90;;;;;;5045196;28;20051;-73
2022/07/30 05:59:56;;;;;;;14.80;9.38;;;18.10;99.90;;;;;;5087887;28;20020;-67
2022/07/30 06:02:40;;;;;;;29.27;10.20;;;18.20;99.90;;;;;;5081873;28;20049;-66
2022/07/30 06:05:24;;;;;;;13.27;8.93;;;18.40;99.90;;;;;;5078893;28;20029;-76
2022/07/30 06:07:51;;;;;;;14.15;8.65;;;18.60;99.90;;;;;;5055922;28;20028;-70
2022/07/30 06:10:20;;;;;;;15.70;8.18;;;18.40;99.90;;;;;;5036836;28;20021;-72
2022/07/30 06:12:46;;;;;;;13.93;7.90;;;18.30;99.90;;;;;;5071988;28;20082;-74
2022/07/30 06:15:12;;;;;;;15.18;8.55;;;18.40;99.90;;;;;;5039690;28;20028;-72
2022/07/30 06:17:44;;;;;;;16.35;7.03;;;18.60;99.90;;;;;;5075491;28;20051;-65
2022/07/30 06:20:17;;;;;;;18.63;7.05;;;19.20;99.90;;;;;;5078848;28;20028;-71
2022/07/30 06:23:01;;;;;;;15.35;7.53;;;19.00;99.90;;;;;;5076890;28;20101;-68
2022/07/30 06:25:56;;;;;;;13.10;8.82;;;18.60;99.90;;;;;;5049747;28;20032;-65
2022/07/30 06:28:23;;;;;;;22.50;8.35;;;18.60;99.90;;;;;;5070975;28;20033;-68
2022/07/30 06:30:50;;;;;;;16.38;8.45;;;18.90;99.90;;;;;;5052183;28;20032;-68
2022/07/30 06:33:17;;;;;;;18.08;8.40;;;19.20;99.90;;;;;;5054983;28;20021;-70
2022/07/30 06:35:44;;;;;;;11.70;7.25;;;19.20;99.90;;;;;;5044219;28;20078;-72
2022/07/30 06:38:12;;;;;;;11.85;6.57;;;19.50;99.90;;;;;;5053605;28;20016;-78
2022/07/30 06:40:51;;;;;;;23.42;7.28;;;19.90;99.90;;;;;;5061366;28;20063;-69
2022/07/30 06:43:23;;;;;;;13.75;6.93;;;20.00;99.90;;;;;;5053607;28;20374;-73
2022/07/30 06:46:11;;;;;;;14.82;7.47;;;19.60;99.90;;;;;;5053895;28;20059;-68
2022/07/30 06:48:43;;;;;;;12.32;5.57;;;19.50;99.90;;;;;;5060457;28;20044;-75
2022/07/30 06:51:10;;;;;;;12.10;6.13;;;19.50;99.90;;;;;;5052744;28;20052;-67
2022/07/30 06:53:38;;;;;;;10.73;6.82;;;19.70;99.90;;;;;;5062903;28;20021;-73
2022/07/30 06:56:13;;;;;;;10.18;6.63;;;19.80;99.90;;;;;;5069104;28;20036;-74
2022/07/30 06:58:58;;;;;;;12.90;6.78;;;19.90;99.90;;;;;;5078011;28;20103;-67
2022/07/30 07:01:36;;;;;;;11.18;6.03;;;20.30;99.90;;;;;;5081015;28;20479;-69
2022/07/30 07:04:03;;;;;;;15.77;6.20;;;20.00;99.90;;;;;;5070547;28;20013;-76
2022/07/30 07:06:29;;;;;;;11.52;5.63;;;19.80;99.90;;;;;;5063963;28;20028;-72
2022/07/30 07:08:55;;;;;;;11.95;6.13;;;20.10;99.90;;;;;;5081946;28;20013;-71
2022/07/30 07:11:31;;;;;;;11.90;5.80;;;20.00;99.90;;;;;;5063416;28;20067;-67
2022/07/30 07:14:00;;;;;;;9.98;5.65;;;19.90;99.90;;;;;;5074761;28;20480;-68
2022/07/30 07:16:32;;;;;;;12.13;4.65;;;20.20;99.90;;;;;;5051660;28;20032;-70
2022/07/30 07:19:05;;;;;;;10.23;4.15;;;20.10;99.90;;;;;;5059799;28;20029;-76
2022/07/30 07:21:31;;;;;;;8.98;3.50;;;20.50;99.90;;;;;;5074310;28;20105;-72
2022/07/30 07:24:01;;;;;;;9.43;2.72;;;20.80;99.90;;;;;;5066640;28;20020;-70
2022/07/30 07:26:50;;;;;;;8.63;2.78;;;21.10;99.90;;;;;;5052896;28;20136;-71
2022/07/30 07:29:16;;;;;;;10.88;3.45;;;21.30;99.90;;;;;;5053090;28;20528;-74
2022/07/30 07:31:42;;;;;;;7.85;3.47;;;20.70;99.90;;;;;;5054329;28;20030;-66
2022/07/30 07:34:10;;;;;;;8.07;3.13;;;20.80;99.90;;;;;;5054208;28;20465;-71
2022/07/30 07:36:35;;;;;;;8.48;3.70;;;20.50;99.90;;;;;;5052817;28;20036;-68
2022/07/30 07:39:02;;;;;;;6.80;3.00;;;20.70;99.90;;;;;;5054477;28;20427;-76
2022/07/30 07:41:28;;;;;;;10.55;2.85;;;21.40;99.90;;;;;;5072295;28;20032;-75
2022/07/30 07:43:54;;;;;;;7.75;2.60;;;21.80;99.90;;;;;;5037746;28;20036;-67
2022/07/30 07:46:30;;;;;;;5.13;2.40;;;21.30;99.90;;;;;;5053448;28;20120;-74
2022/07/30 07:48:56;;;;;;;7.38;2.35;;;21.40;99.90;;;;;;5054679;28;20025;-67
2022/07/30 07:51:27;;;;;;;9.05;3.38;;;21.50;99.90;;;;;;5052122;28;20032;-67
2022/07/30 07:53:53;;;;;;;5.25;2.42;;;21.40;99.90;;;;;;5071178;28;20555;-67
2022/07/30 07:56:19;;;;;;;7.40;2.90;;;21.90;99.90;;;;;;5072865;28;20504;-70
2022/07/30 07:58:46;;;;;;;9.07;3.08;;;22.30;99.90;;;;;;5051862;28;20023;-66
2022/07/30 08:01:12;;;;;;;8.60;3.03;;;21.20;99.90;;;;;;5066838;28;20060;-66
2022/07/30 08:04:04;;;;;;;7.95;2.22;;;20.40;99.90;;;;;;5036388;28;20037;-75
2022/07/30 08:06:48;;;;;;;6.28;2.60;;;20.40;99.90;;;;;;5074029;28;20511;-68
2022/07/30 08:09:43;;;;;;;8.27;2.40;;;20.80;99.90;;;;;;4979028;28;20039;-67
2022/07/30 08:12:18;;;;;;;11.57;2.40;;;21.50;99.90;;;;;;5073512;28;20021;-73
2022/07/30 08:15:13;;;;;;;5.30;2.75;;;22.40;99.90;;;;;;5072193;28;20504;-71
2022/07/30 08:17:50;;;;;;;16.55;4.20;;;22.60;99.90;;;;;;5067742;28;20040;-64
2022/07/30 08:20:21;;;;;;;8.60;2.65;;;21.60;99.90;;;;;;5072587;28;20047;-72
2022/07/30 08:22:47;;;;;;;9.70;2.75;;;21.70;99.90;;;;;;5053349;28;20110;-72
2022/07/30 08:25:14;;;;;;;7.97;3.05;;;22.00;99.90;;;;;;5063136;28;20061;-72
2022/07/30 08:27:40;;;;;;;4.13;2.25;;;22.40;99.90;;;;;;5068211;28;20143;-69
2022/07/30 08:30:07;;;;;;;8.80;2.40;;;22.50;99.90;;;;;;5055129;28;20020;-64
2022/07/30 08:32:34;;;;;;;6.55;2.58;;;22.00;99.90;;;;;;5052465;28;20476;-70
2022/07/30 08:35:04;;;;;;;12.93;2.45;;;22.20;99.90;;;;;;5054319;28;20039;-73
2022/07/30 08:37:30;;;;;;;4.00;1.58;;;22.70;99.90;;;;;;5063922;28;20025;-74
2022/07/30 08:39:56;;;;;;;11.52;2.53;;;22.70;99.90;;;;;;5053242;28;20029;-66
2022/07/30 08:42:23;;;;;;;6.93;2.10;;;22.00;99.90;;;;;;5068076;28;20142;-69
2022/07/30 08:44:52;;;;;;;4.88;2.05;;;21.90;99.90;;;;;;5039370;28;20473;-68
2022/07/30 08:47:22;;;;;;;3.92;1.55;;;22.40;99.40;;;;;;5045371;28;20504;-68
2022/07/30 08:50:07;;;;;;;9.70;1.85;;;22.20;99.00;;;;;;5068810;28;20035;-65
2022/07/30 08:52:37;;;;;;;5.05;2.15;;;22.00;99.90;;;;;;5052385;28;20013;-70
2022/07/30 08:55:06;;;;;;;1.55;1.25;;;22.40;99.90;;;;;;5064137;28;20072;-68
2022/07/30 08:57:36;;;;;;;5.72;1.80;;;22.40;98.00;;;;;;5058216;28;20036;-67
2022/07/30 09:00:05;;;;;;;4.55;1.98;;;22.50;97.90;;;;;;5070285;28;20111;-69
2022/07/30 09:02:31;;;;;;;4.80;2.30;;;22.80;99.40;;;;;;5054830;28;20032;-70
2022/07/30 09:05:04;;;;;;;4.75;1.95;;;23.20;99.90;;;;;;5069421;28;20035;-68
2022/07/30 09:07:32;;;;;;;6.43;2.25;;;23.70;97.80;;;;;;5044998;28;20024;-71
2022/07/30 09:10:00;;;;;;;5.28;2.00;;;24.10;97.40;;;;;;5053037;28;20031;-71
2022/07/30 09:12:37;;;;;;;4.78;2.15;;;24.10;96.40;;;;;;5054986;28;20078;-68
2022/07/30 09:15:09;;;;;;;6.00;2.45;;;24.00;98.10;;;;;;5054963;28;20475;-71
2022/07/30 09:17:55;;;;;;;8.70;2.15;;;23.50;97.90;;;;;;5074271;28;20119;-68
2022/07/30 09:20:34;;;;;;;6.93;1.70;;;23.30;98.90;;;;;;5059971;28;20024;-70
2022/07/30 09:23:04;;;;;;;4.05;1.75;;;23.80;98.20;;;;;;5075202;28;20056;-71
2022/07/30 09:25:50;;;;;;;3.55;2.08;;;24.40;97.00;;;;;;5073632;28;20036;-71
2022/07/30 09:28:34;;;;;;;3.85;2.20;;;25.00;95.40;;;;;;5054369;28;20069;-68
2022/07/30 09:31:12;;;;;;;2.90;1.50;;;24.30;96.10;;;;;;5077453;28;20033;-70
2022/07/30 09:33:56;;;;;;;7.05;1.83;;;24.10;96.60;;;;;;5075249;28;20039;-70
2022/07/30 09:36:41;;;;;;;4.75;1.90;;;24.50;96.60;;;;;;5072655;28;20039;-69
2022/07/30 09:39:34;;;;;;;4.72;1.55;;;24.70;95.80;;;;;;5072117;28;20090;-65
2022/07/30 09:42:18;;;;;;;3.65;1.70;;;23.80;96.20;;;;;;5072245;28;20124;-69
2022/07/30 09:44:45;;;;;;;4.53;1.75;;;24.40;96.70;;;;;;5055700;28;20640;-68
2022/07/30 09:47:33;;;;;;;5.82;1.98;;;25.10;95.50;;;;;;5054564;28;20021;-67
2022/07/30 09:50:22;;;;;;;11.73;2.30;;;25.20;95.50;;;;;;5072522;28;20039;-67
2022/07/30 09:52:50;;;;;;;8.23;2.17;;;25.50;94.80;;;;;;5056132;28;20111;-66
2022/07/30 09:55:34;;;;;;;6.60;2.25;;;25.30;95.30;;;;;;5052570;28;20078;-69
2022/07/30 09:58:03;;;;;;;9.88;2.58;;;25.40;95.10;;;;;;5063935;28;20540;-67
2022/07/30 10:00:32;;;;;;;9.38;2.10;;;25.50;96.00;;;;;;5038425;28;20081;-65
2022/07/30 10:03:22;;;;;;;5.30;1.90;;;25.40;95.30;;;;;;5048425;28;20473;-69
2022/07/30 10:06:11;;;;;;;6.00;2.00;;;26.20;94.70;;;;;;5052011;28;20067;-68
2022/07/30 10:08:50;;;;;;;13.07;2.25;;;25.40;95.40;;;;;;5055711;28;20053;-71
2022/07/30 10:11:21;;;;;;;6.93;2.17;;;25.60;95.70;;;;;;5055934;28;20479;-68
2022/07/30 10:13:53;;;;;;;6.85;1.88;;;25.30;96.10;;;;;;5052050;28;20365;-70
2022/07/30 10:16:19;;;;;;;11.50;2.80;;;25.30;96.60;;;;;;5055653;28;20423;-69
2022/07/30 10:18:46;;;;;;;5.60;2.28;;;25.90;95.10;;;;;;5055476;28;20523;-71
2022/07/30 10:21:30;;;;;;;3.50;1.85;;;26.40;95.30;;;;;;5073733;28;20068;-66
2022/07/30 10:24:19;;;;;;;9.02;2.35;;;26.10;95.10;;;;;;5071799;28;20032;-70
2022/07/30 10:26:52;;;;;;;6.90;2.20;;;25.70;95.10;;;;;;5073196;28;20051;-69
2022/07/30 10:29:40;;;;;;;6.38;2.65;;;26.20;94.60;;;;;;5072472;28;20047;-69
2022/07/30 10:32:06;;;;;;;7.95;2.25;;;25.40;95.30;;;;;;5073034;28;20035;-71
2022/07/30 10:34:32;;;;;;;9.18;2.30;;;26.50;94.90;;;;;;5073257;28;20032;-65
2022/07/30 10:37:03;;;;;;;6.07;1.90;;;26.30;94.10;;;;;;5054944;28;20029;-66
2022/07/30 10:39:46;;;;;;;6.68;2.30;;;26.50;94.00;;;;;;5059848;28;20032;-65
2022/07/30 10:42:17;;;;;;;8.20;2.20;;;26.70;93.70;;;;;;5077904;28;20044;-65
2022/07/30 10:45:11;;;;;;;9.18;2.20;;;26.10;94.20;;;;;;5068524;28;20479;-66
2022/07/30 10:47:38;;;;;;;4.53;2.00;;;26.90;93.70;;;;;;5066206;28;20024;-68
2022/07/30 10:50:10;;;;;;;6.70;2.28;;;26.80;94.00;;;;;;5065674;28;20166;-67
2022/07/30 10:52:49;;;;;;;6.55;2.13;;;26.60;93.50;;;;;;5069316;28;20093;-70
2022/07/30 10:55:23;;;;;;;8.90;2.13;;;26.50;93.70;;;;;;5063988;28;20036;-72
2022/07/30 10:58:08;;;;;;;10.85;2.85;;;26.90;93.70;;;;;;5061794;28;20264;-75
2022/07/30 11:00:53;;;;;;;7.15;2.17;;;27.00;93.00;;;;;;5070736;28;20020;-68
2022/07/30 11:03:24;;;;;;;7.57;2.20;;;26.70;93.70;;;;;;5071127;28;20040;-76
2022/07/30 11:06:11;;;;;;;7.78;2.90;;;27.40;92.90;;;;;;5063700;28;20112;-71
2022/07/30 11:08:39;;;;;;;4.65;1.73;;;27.90;92.70;;;;;;5066827;28;20029;-69
2022/07/30 11:11:27;;;;;;;10.98;1.92;;;28.00;92.60;;;;;;5072580;28;20067;-71
2022/07/30 11:13:57;;;;;;;6.95;1.92;;;26.90;93.20;;;;;;5069301;28;20062;-70
2022/07/30 11:16:41;;;;;;;4.95;2.15;;;26.30;93.60;;;;;;5077351;28;20029;-70
2022/07/30 11:19:10;;;;;;;6.95;1.98;;;25.90;94.00;;;;;;5071741;28;20034;-70
2022/07/30 11:21:36;;;;;;;3.70;1.83;;;25.80;94.10;;;;;;5071661;28;20040;-71
2022/07/30 11:24:03;;;;;;;4.95;1.83;;;26.10;94.40;;;;;;5072195;28;20032;-71
2022/07/30 11:26:37;;;;;;;9.38;2.25;;;25.80;94.10;;;;;;5072292;28;20032;-71
2022/07/30 11:29:04;;;;;;;5.95;2.17;;;26.20;94.50;;;;;;5068453;28;20025;-69
2022/07/30 11:31:35;;;;;;;7.50;2.15;;;26.20;94.40;;;;;;5072426;28;20040;-64
2022/07/30 11:34:33;;;;;;;7.13;2.50;;;26.30;93.70;;;;;;5072434;28;20022;-64
2022/07/30 11:37:11;;;;;;;7.13;2.17;;;26.10;94.00;;;;;;5017718;28;20041;-71
2022/07/30 11:39:55;;;;;;;6.65;3.20;;;26.10;93.70;;;;;;5072063;28;20031;-69
2022/07/30 11:42:35;;;;;;;17.15;2.08;;;26.20;94.20;;;;;;5075081;28;20037;-66
2022/07/30 11:45:19;;;;;;;6.88;2.40;;;26.70;94.40;;;;;;5076663;28;20050;-71
2022/07/30 11:47:45;;;;;;;6.85;2.05;;;26.60;93.20;;;;;;5071952;28;20024;-71
2022/07/30 11:50:44;;;;;;;10.25;2.10;;;26.90;93.70;;;;;;5080279;28;20031;-72
2022/07/30 11:53:18;;;;;;;7.35;2.33;;;27.30;93.40;;;;;;5070283;28;20040;-70
2022/07/30 11:55:55;;;;;;;7.45;2.28;;;27.20;93.20;;;;;;5076284;28;20039;-70
2022/07/30 11:58:38;;;;;;;7.53;2.65;;;27.70;92.70;;;;;;5076149;28;20032;-71
2022/07/30 12:01:15;;;;;;;6.45;2.40;;;28.10;92.30;;;;;;5076318;28;20075;-66
2022/07/30 12:03:43;;;;;;;9.75;2.20;;;28.20;92.00;;;;;;5076173;28;20028;-69
2022/07/30 12:06:18;;;;;;;7.13;2.50;;;28.50;91.40;;;;;;5076265;28;20094;-67
2022/07/30 12:08:49;;;;;;;9.93;2.85;;;28.30;91.40;;;;;;5075737;28;20476;-65
2022/07/30 12:11:15;;;;;;;12.80;2.70;;;28.30;91.30;;;;;;5076251;28;20024;-68
2022/07/30 12:13:42;;;;;;;10.18;2.80;;;28.00;91.50;;;;;;5075720;28;20290;-68
2022/07/30 12:16:16;;;;;;;9.50;2.10;;;28.60;90.80;;;;;;5076173;28;20037;-66
2022/07/30 12:18:42;;;;;;;10.23;2.83;;;28.70;90.90;;;;;;5057950;28;20028;-68
2022/07/30 12:21:11;;;;;;;8.80;2.65;;;28.40;91.30;;;;;;5076104;28;20027;-65
2022/07/30 12:23:38;;;;;;;5.78;2.53;;;28.40;90.80;;;;;;5075753;28;20040;-70
2022/07/30 12:26:04;;;;;;;10.50;2.40;;;28.50;90.60;;;;;;5075343;28;20354;-69
2022/07/30 12:28:32;;;;;;;7.03;2.38;;;28.40;90.80;;;;;;5075793;28;20032;-68
2022/07/30 12:31:01;;;;;;;6.57;2.35;;;29.50;90.10;;;;;;5075760;28;20027;-69
2022/07/30 12:33:27;;;;;;;10.90;2.45;;;29.70;89.70;;;;;;5075823;28;20021;-70
2022/07/30 12:35:57;;;;;;;11.77;3.35;;;29.30;89.70;;;;;;5075534;28;20103;-71
2022/07/30 12:38:25;;;;;;;9.77;3.05;;;29.00;90.40;;;;;;5075496;28;20122;-69
2022/07/30 12:41:01;;;;;;;8.82;2.88;;;28.70;90.10;;;;;;5075457;28;20427;-72
2022/07/30 12:43:51;;;;;;;11.95;4.05;;;29.70;89.60;;;;;;5075509;28;20047;-68
2022/07/30 12:46:18;;;;;;;6.68;3.13;;;29.60;89.60;;;;;;5075181;28;20035;-67
2022/07/30 12:49:01;;;;;;;8.88;3.30;;;29.40;89.60;;;;;;5075420;28;20056;-64
2022/07/30 12:51:32;;;;;;;8.63;3.20;;;29.40;90.60;;;;;;5075082;28;20199;-68
2022/07/30 12:54:00;;;;;;;9.38;2.88;;;28.70;90.20;;;;;;5074191;28;20096;-70
2022/07/30 12:56:28;;;;;;;9.23;2.90;;;28.20;91.20;;;;;;5075274;28;20396;-70
2022/07/30 12:58:57;;;;;;;6.57;3.13;;;27.90;90.90;;;;;;5065204;28;20024;-64
2022/07/30 13:01:43;;;;;;;9.73;2.72;;;27.90;91.40;;;;;;5075067;28;20632;-70
2022/07/30 13:04:09;;;;;;;6.05;2.70;;;28.60;91.80;;;;;;5075299;28;20029;-72